createdAt,value
2023-02-17T00:01:17.281Z,11.95
2023-02-17T00:05:42.298Z,11.90
2023-02-17T00:10:05.090Z,13.10
2023-02-17T00:14:26.970Z,11.45
2023-02-17T00:18:55.157Z,13.18
2023-02-17T00:23:17.112Z,12.43
2023-02-17T00:27:38.915Z,11.63
2023-02-17T00:32:02.040Z,12.20
2023-02-17T00:36:26.137Z,12.05
2023-02-17T00:40:48.194Z,12.13
2023-02-17T00:45:10.514Z,12.48
2023-02-17T00:49:32.756Z,11.23
2023-02-17T00:53:54.504Z,10.93
2023-02-17T00:58:17.221Z,12.40
2023-02-17T01:02:39.161Z,10.73
2023-02-17T01:07:01.417Z,10.88
2023-02-17T01:11:27.954Z,11.35
2023-02-17T01:15:54.520Z,11.15
2023-02-17T01:20:17.254Z,10.95
2023-02-17T01:24:40.260Z,11.20
2023-02-17T01:29:03.239Z,10.30
2023-02-17T01:33:25.116Z,9.45
2023-02-17T01:37:47.220Z,9.73
2023-02-17T01:42:22.936Z,10.82
2023-02-17T01:46:49.005Z,10.07
2023-02-17T01:51:30.349Z,9.98
2023-02-17T01:55:52.930Z,9.90
2023-02-17T02:00:17.593Z,9.57
2023-02-17T02:04:43.315Z,10.65
2023-02-17T02:09:15.827Z,9.60
2023-02-17T02:13:37.930Z,9.80
2023-02-17T02:18:24.031Z,9.70
2023-02-17T02:23:23.213Z,10.07
2023-02-17T02:27:57.346Z,9.18
2023-02-17T02:32:58.935Z,9.82
2023-02-17T02:37:43.256Z,10.05
2023-02-17T02:42:14.499Z,9.35
2023-02-17T02:46:36.894Z,9.35
2023-02-17T02:51:15.074Z,9.20
2023-02-17T02:56:13.774Z,13.30
2023-02-17T03:01:14.369Z,11.23
2023-02-17T03:06:10.992Z,9.30
2023-02-17T03:10:33.148Z,8.90
2023-02-17T03:15:13.356Z,8.80
2023-02-17T03:19:35.873Z,9.13
2023-02-17T03:23:57.693Z,9.00
2023-02-17T03:28:19.676Z,10.15
2023-02-17T03:32:43.142Z,10.10
2023-02-17T03:37:05.292Z,9.07
2023-02-17T03:41:27.433Z,9.02
2023-02-17T03:45:49.639Z,9.70
2023-02-17T03:50:11.633Z,10.77
2023-02-17T03:54:33.971Z,10.95
2023-02-17T03:58:55.852Z,7.70
2023-02-17T04:03:17.729Z,11.20
2023-02-17T04:07:39.994Z,11.00
2023-02-17T04:12:01.909Z,12.05
2023-02-17T04:16:24.156Z,13.43
2023-02-17T04:20:48.250Z,12.98
2023-02-17T04:25:10.069Z,14.05
2023-02-17T04:29:33.727Z,14.63
2023-02-17T04:33:55.518Z,13.00
2023-02-17T04:38:18.092Z,13.77
2023-02-17T04:42:40.016Z,13.32
2023-02-17T04:47:02.067Z,13.00
2023-02-17T04:51:23.867Z,12.68
2023-02-17T04:55:50.828Z,12.55
2023-02-17T05:00:13.368Z,11.75
2023-02-17T05:04:35.362Z,12.55
2023-02-17T05:08:57.209Z,13.52
2023-02-17T05:13:20.139Z,12.07
2023-02-17T05:17:42.107Z,14.50
2023-02-17T05:22:04.277Z,13.80
2023-02-17T05:26:26.564Z,14.85
2023-02-17T05:30:50.658Z,13.32
2023-02-17T05:35:13.007Z,14.27
2023-02-17T05:39:35.148Z,13.57
2023-02-17T05:43:58.989Z,13.18
2023-02-17T05:48:21.228Z,14.80
2023-02-17T05:52:43.669Z,12.25
2023-02-17T05:57:05.961Z,12.27
2023-02-17T06:01:28.192Z,11.73
2023-02-17T06:05:50.360Z,10.55
2023-02-17T06:10:12.251Z,10.32
2023-02-17T06:14:34.215Z,10.88
2023-02-17T06:18:56.553Z,9.77
2023-02-17T06:23:18.295Z,10.27
2023-02-17T06:27:42.245Z,11.20
2023-02-17T06:32:04.926Z,10.48
2023-02-17T06:36:26.970Z,9.65
2023-02-17T06:40:48.928Z,10.10
2023-02-17T06:45:11.049Z,9.68
2023-02-17T06:49:32.915Z,10.15
2023-02-17T06:53:55.826Z,10.55
2023-02-17T06:58:18.180Z,8.27
2023-02-17T07:02:40.832Z,10.20
2023-02-17T07:07:02.770Z,10.45
2023-02-17T07:11:24.628Z,11.52
2023-02-17T07:15:46.646Z,11.43
2023-02-17T07:20:09.534Z,12.50
2023-02-17T07:24:31.971Z,11.48
2023-02-17T07:28:54.009Z,11.57
2023-02-17T07:33:16.109Z,12.93
2023-02-17T07:37:38.333Z,12.18
2023-02-17T07:42:01.252Z,11.75
2023-02-17T07:46:24.172Z,8.52
2023-02-17T07:50:45.991Z,10.88
2023-02-17T07:55:08.968Z,9.85
2023-02-17T07:59:31.167Z,11.57
2023-02-17T08:03:53.726Z,9.48
2023-02-17T08:08:34.166Z,8.10
2023-02-17T08:13:14.768Z,9.32
2023-02-17T08:17:37.171Z,8.75
2023-02-17T08:21:59.436Z,8.07
2023-02-17T08:26:22.202Z,8.10
2023-02-17T08:30:44.472Z,8.75
2023-02-17T08:35:07.326Z,8.05
2023-02-17T08:39:29.867Z,7.32
2023-02-17T08:43:52.255Z,7.25
2023-02-17T08:48:14.420Z,6.80
2023-02-17T08:52:37.006Z,6.68
2023-02-17T08:56:58.839Z,6.65
2023-02-17T09:01:21.464Z,5.80
2023-02-17T09:05:46.443Z,6.82
2023-02-17T09:10:10.703Z,6.63
2023-02-17T09:14:32.889Z,6.03
2023-02-17T09:18:55.153Z,6.25
2023-02-17T09:23:18.011Z,6.10
2023-02-17T09:27:40.264Z,5.45
2023-02-17T09:32:03.264Z,5.57
2023-02-17T09:36:37.290Z,5.50
2023-02-17T09:41:27.971Z,4.55
2023-02-17T09:45:55.874Z,5.28
2023-02-17T09:50:26.133Z,5.55
2023-02-17T09:55:15.392Z,4.80
2023-02-17T09:59:47.712Z,5.32
2023-02-17T10:04:26.774Z,5.03
2023-02-17T10:09:01.067Z,4.90
2023-02-17T10:13:27.724Z,5.03
2023-02-17T10:18:08.405Z,4.88
2023-02-17T10:22:33.559Z,5.43
2023-02-17T10:27:11.235Z,4.93
2023-02-17T10:32:02.668Z,5.15
2023-02-17T10:37:03.555Z,4.47
2023-02-17T10:41:34.766Z,4.28
2023-02-17T10:45:59.888Z,5.18
2023-02-17T10:50:25.013Z,5.07
2023-02-17T10:55:22.922Z,4.15
2023-02-17T10:59:48.788Z,4.25
2023-02-17T11:04:14.168Z,3.95
2023-02-17T11:08:44.894Z,4.25
2023-02-17T11:13:56.633Z,4.43
2023-02-17T11:18:35.800Z,4.65
2023-02-17T11:23:05.472Z,4.53
2023-02-17T11:27:27.791Z,4.95
2023-02-17T11:32:09.213Z,4.55
2023-02-17T11:36:32.553Z,4.38
2023-02-17T11:41:01.732Z,3.85
2023-02-17T11:45:26.398Z,4.40
2023-02-17T11:50:07.037Z,4.32
2023-02-17T11:55:05.893Z,4.25
2023-02-17T11:59:31.452Z,4.22
2023-02-17T12:04:16.131Z,4.22
2023-02-17T12:09:35.479Z,3.92
2023-02-17T12:14:02.699Z,3.83
2023-02-17T12:18:45.212Z,5.03
2023-02-17T12:23:28.388Z,4.20
2023-02-17T12:28:41.691Z,4.32
2023-02-17T12:33:24.886Z,4.03
2023-02-17T12:38:03.909Z,3.53
2023-02-17T12:42:41.459Z,3.70
2023-02-17T12:47:15.050Z,2.95
2023-02-17T12:51:45.154Z,3.42
2023-02-17T12:56:34.022Z,3.15
2023-02-17T13:01:09.689Z,3.03
2023-02-17T13:05:44.526Z,2.97
2023-02-17T13:10:31.403Z,2.63
2023-02-17T13:15:26.415Z,2.63
2023-02-17T13:19:48.359Z,2.60
2023-02-17T13:24:15.636Z,2.40
2023-02-17T13:28:41.254Z,2.25
2023-02-17T13:33:08.077Z,2.55
2023-02-17T13:37:33.028Z,1.80
2023-02-17T13:42:00.374Z,2.10
2023-02-17T13:46:26.261Z,1.88
2023-02-17T13:50:55.813Z,2.15
2023-02-17T13:55:20.469Z,2.30
2023-02-17T13:59:42.471Z,2.28
2023-02-17T14:04:16.929Z,2.33
2023-02-17T14:08:43.047Z,2.35
2023-02-17T14:13:05.320Z,2.45
2023-02-17T14:17:33.116Z,2.40
2023-02-17T14:22:05.604Z,2.63
2023-02-17T14:26:46.941Z,3.45
2023-02-17T14:31:12.320Z,2.22
2023-02-17T14:35:35.542Z,2.63
2023-02-17T14:39:57.409Z,2.75
2023-02-17T14:44:19.159Z,2.88
2023-02-17T14:48:41.952Z,2.65
2023-02-17T14:53:04.314Z,2.35
2023-02-17T14:57:28.220Z,2.53
2023-02-17T15:01:50.346Z,3.00
2023-02-17T15:06:29.457Z,2.97
2023-02-17T15:10:53.249Z,2.75
2023-02-17T15:15:18.010Z,2.80
2023-02-17T15:19:42.218Z,3.05
2023-02-17T15:24:35.473Z,2.83
2023-02-17T15:28:59.141Z,3.22
2023-02-17T15:33:23.666Z,2.80
2023-02-17T15:37:46.012Z,3.17
2023-02-17T15:42:13.998Z,2.80
2023-02-17T15:46:36.495Z,3.20
2023-02-17T15:50:58.764Z,2.67
2023-02-17T15:55:23.770Z,2.70
2023-02-17T15:59:49.295Z,2.70
2023-02-17T16:04:13.171Z,2.53
2023-02-17T16:08:35.614Z,2.70
2023-02-17T16:13:01.390Z,2.50
2023-02-17T16:17:24.112Z,2.60
2023-02-17T16:21:46.478Z,2.90
2023-02-17T16:26:34.543Z,2.47
2023-02-17T16:30:56.566Z,2.50
2023-02-17T16:35:25.084Z,2.90
2023-02-17T16:39:47.280Z,2.45
2023-02-17T16:44:19.100Z,2.95
2023-02-17T16:48:43.258Z,2.92
2023-02-17T16:53:10.658Z,2.70
2023-02-17T16:57:33.095Z,3.60
2023-02-17T17:01:55.173Z,2.78
2023-02-17T17:06:23.875Z,2.88
2023-02-17T17:10:50.306Z,3.22
2023-02-17T17:15:14.369Z,2.97
2023-02-17T17:19:37.370Z,2.67
2023-02-17T17:23:59.971Z,3.53
2023-02-17T17:28:25.332Z,4.10
2023-02-17T17:32:48.397Z,3.22
2023-02-17T17:37:11.632Z,4.68
2023-02-17T17:41:33.835Z,2.78
2023-02-17T17:45:56.180Z,2.33
2023-02-17T17:50:43.103Z,3.22
2023-02-17T17:55:06.353Z,3.17
2023-02-17T17:59:28.585Z,2.70
2023-02-17T18:03:51.051Z,3.63
2023-02-17T18:08:14.244Z,3.13
2023-02-17T18:12:36.909Z,3.22
2023-02-17T18:16:59.464Z,2.97
2023-02-17T18:21:21.558Z,3.05
2023-02-17T18:25:43.957Z,2.95
2023-02-17T18:30:07.637Z,2.33
2023-02-17T18:34:29.852Z,3.20
2023-02-17T18:38:52.599Z,3.60
2023-02-17T18:43:16.951Z,3.58
2023-02-17T18:47:39.248Z,3.70
2023-02-17T18:52:01.471Z,3.65
2023-02-17T18:56:26.148Z,3.65
2023-02-17T19:00:48.229Z,3.42
2023-02-17T19:05:11.928Z,3.92
2023-02-17T19:09:36.410Z,3.83
2023-02-17T19:14:01.849Z,4.43
2023-02-17T19:18:23.710Z,5.00
2023-02-17T19:22:45.629Z,4.15
2023-02-17T19:27:08.626Z,4.55
2023-02-17T19:31:31.143Z,5.10
2023-02-17T19:35:53.384Z,5.43
2023-02-17T19:40:15.388Z,4.15
2023-02-17T19:44:37.470Z,4.07
2023-02-17T19:48:59.431Z,3.90
2023-02-17T19:53:21.495Z,4.07
2023-02-17T19:57:43.471Z,4.20
2023-02-17T20:02:05.634Z,5.18
2023-02-17T20:06:39.452Z,5.38
2023-02-17T20:11:09.171Z,6.18
2023-02-17T20:15:31.356Z,6.97
2023-02-17T20:19:53.470Z,6.32
2023-02-17T20:24:15.912Z,7.10
2023-02-17T20:28:39.033Z,7.22
2023-02-17T20:33:00.693Z,7.78
2023-02-17T20:37:22.736Z,8.10
2023-02-17T20:41:45.076Z,8.20
2023-02-17T20:46:07.497Z,9.85
2023-02-17T20:50:29.960Z,9.13
2023-02-17T20:54:51.716Z,9.07
2023-02-17T20:59:14.752Z,9.98
2023-02-17T21:03:37.828Z,9.05
2023-02-17T21:07:59.980Z,8.63
2023-02-17T21:12:21.949Z,9.10
2023-02-17T21:16:43.985Z,7.72
2023-02-17T21:21:06.477Z,7.70
2023-02-17T21:25:28.793Z,7.70
2023-02-17T21:29:50.753Z,8.07
2023-02-17T21:34:12.494Z,7.30
2023-02-17T21:38:34.742Z,6.90
2023-02-17T21:43:29.412Z,5.63
2023-02-17T21:47:51.691Z,5.10
2023-02-17T21:52:14.151Z,5.25
2023-02-17T21:56:36.590Z,4.55
2023-02-17T22:00:58.914Z,3.97
2023-02-17T22:05:21.294Z,3.88
2023-02-17T22:09:43.378Z,3.58
2023-02-17T22:14:17.991Z,4.28
2023-02-17T22:18:40.563Z,3.72
2023-02-17T22:23:02.790Z,3.72
2023-02-17T22:27:25.109Z,4.43
2023-02-17T22:31:48.421Z,3.70
2023-02-17T22:36:14.908Z,4.10
2023-02-17T22:40:41.394Z,4.13
2023-02-17T22:45:03.410Z,5.30
2023-02-17T22:49:25.411Z,3.80
2023-02-17T22:53:47.835Z,4.47
2023-02-17T22:58:09.822Z,4.10
2023-02-17T23:02:35.498Z,4.30
2023-02-17T23:06:57.588Z,4.60
2023-02-17T23:11:44.030Z,4.10
2023-02-17T23:16:07.603Z,4.30
2023-02-17T23:20:29.984Z,4.68
2023-02-17T23:24:51.946Z,5.70
2023-02-17T23:29:15.414Z,6.57
2023-02-17T23:33:38.301Z,6.55
2023-02-17T23:38:02.288Z,7.05
2023-02-17T23:42:24.641Z,7.03
2023-02-17T23:46:47.252Z,7.53
2023-02-17T23:51:09.576Z,7.32
2023-02-17T23:55:31.652Z,8.10
2023-02-17T23:59:53.873Z,8.02
